createdAt,value
2023-02-19T00:01:18.337Z,3.40
2023-02-19T00:06:25.646Z,3.44
2023-02-19T00:12:51.281Z,3.42
2023-02-19T00:17:55.066Z,3.30
2023-02-19T00:22:58.811Z,3.40
2023-02-19T00:28:02.631Z,3.44
2023-02-19T00:33:06.367Z,3.30
2023-02-19T00:38:19.224Z,3.30
2023-02-19T00:43:23.076Z,3.30
2023-02-19T00:48:26.761Z,3.20
2023-02-19T00:53:30.519Z,2.90
2023-02-19T00:58:34.297Z,2.64
2023-02-19T01:04:06.415Z,2.52
2023-02-19T01:10:31.997Z,2.60
2023-02-19T01:15:36.070Z,2.50
2023-02-19T01:27:50.495Z,2.38
2023-02-19T01:40:25.196Z,2.22
2023-02-19T01:46:36.233Z,2.56
2023-02-19T01:51:47.893Z,2.60
2023-02-19T01:56:52.760Z,2.50
2023-02-19T02:01:56.842Z,2.48
2023-02-19T02:07:24.799Z,2.54
2023-02-19T02:12:28.416Z,2.70
2023-02-19T02:17:44.106Z,2.70
2023-02-19T02:23:28.800Z,2.70
2023-02-19T02:28:44.332Z,2.92
2023-02-19T02:33:58.483Z,3.00
2023-02-19T02:39:07.621Z,3.00
2023-02-19T02:44:12.060Z,3.20
2023-02-19T02:49:24.329Z,3.20
2023-02-19T02:55:44.113Z,3.20
2023-02-19T03:01:15.600Z,3.40
2023-02-19T03:06:24.453Z,3.40
2023-02-19T03:13:01.820Z,3.28
2023-02-19T03:18:29.724Z,3.38
2023-02-19T03:30:50.419Z,3.30
2023-02-19T03:36:01.421Z,3.40
2023-02-19T03:41:32.383Z,3.40
2023-02-19T03:46:42.512Z,3.30
2023-02-19T03:51:58.527Z,3.40
2023-02-19T03:57:30.133Z,3.30
2023-02-19T04:03:00.357Z,3.40
2023-02-19T04:08:16.371Z,3.40
2023-02-19T04:14:03.345Z,3.40
2023-02-19T04:19:14.587Z,3.40
2023-02-19T04:24:37.929Z,3.40
2023-02-19T04:29:53.997Z,3.50
2023-02-19T04:34:57.716Z,3.44
2023-02-19T04:40:17.007Z,3.40
2023-02-19T04:45:20.629Z,3.50
2023-02-19T04:50:24.647Z,3.40
2023-02-19T04:57:10.926Z,3.40
2023-02-19T05:02:40.260Z,3.30
2023-02-19T05:17:53.410Z,3.16
2023-02-19T05:22:57.651Z,3.10
2023-02-19T05:28:18.512Z,3.20
2023-02-19T05:33:25.673Z,3.20
2023-02-19T05:38:29.198Z,3.10
2023-02-19T06:02:54.847Z,3.20
2023-02-19T06:08:03.686Z,3.18
2023-02-19T06:18:29.709Z,3.30
2023-02-19T06:23:33.718Z,3.30
2023-02-19T06:28:39.470Z,3.40
2023-02-19T06:33:44.103Z,3.50
2023-02-19T06:39:16.190Z,3.40
2023-02-19T06:44:20.043Z,3.46
2023-02-19T06:49:24.422Z,3.60
2023-02-19T06:54:28.187Z,3.70
2023-02-19T06:59:31.911Z,3.60
2023-02-19T07:04:35.671Z,3.70
2023-02-19T07:09:39.489Z,3.80
2023-02-19T07:14:43.326Z,3.70
2023-02-19T07:19:47.044Z,3.70
2023-02-19T07:24:50.674Z,3.90
2023-02-19T07:30:20.222Z,3.80
2023-02-19T07:35:24.025Z,3.88
2023-02-19T07:40:27.772Z,3.90
2023-02-19T07:45:31.441Z,3.80
2023-02-19T07:50:35.469Z,3.90
2023-02-19T07:55:39.323Z,3.92
2023-02-19T08:00:43.463Z,3.94
2023-02-19T08:05:47.179Z,4.16
2023-02-19T08:11:09.816Z,4.10
2023-02-19T08:16:26.585Z,4.30
2023-02-19T08:21:37.422Z,4.70
2023-02-19T08:26:41.373Z,4.70
2023-02-19T08:31:45.193Z,4.70
2023-02-19T08:36:49.109Z,4.70
2023-02-19T08:41:53.083Z,4.60
2023-02-19T08:46:56.936Z,4.64
2023-02-19T08:59:09.254Z,4.50
2023-02-19T09:04:13.615Z,4.70
2023-02-19T09:09:17.199Z,4.80
2023-02-19T09:14:34.116Z,5.00
2023-02-19T09:19:38.627Z,5.22
2023-02-19T09:25:37.180Z,5.46
2023-02-19T09:31:57.565Z,6.28
2023-02-19T09:44:37.879Z,7.20
2023-02-19T10:04:55.237Z,7.50
2023-02-19T10:26:32.348Z,8.54
2023-02-19T10:32:30.891Z,8.60
2023-02-19T10:37:53.797Z,9.20
2023-02-19T10:43:04.968Z,9.86
2023-02-19T10:48:31.069Z,10.40
2023-02-19T10:53:48.039Z,10.80
2023-02-19T10:58:52.425Z,11.40
2023-02-19T11:10:59.110Z,11.90
2023-02-19T11:16:03.005Z,11.80
2023-02-19T11:21:58.358Z,11.10
2023-02-19T11:27:07.605Z,11.10
2023-02-19T11:32:32.727Z,11.70
2023-02-19T11:37:36.465Z,11.90
2023-02-19T11:43:10.372Z,11.70
2023-02-19T11:57:38.951Z,10.92
2023-02-19T12:03:02.548Z,10.70
2023-02-19T12:09:00.309Z,10.00
2023-02-19T12:21:54.767Z,12.62
2023-02-19T12:27:35.609Z,15.36
2023-02-19T12:33:37.706Z,17.10
2023-02-19T12:39:18.616Z,16.02
2023-02-19T13:00:44.831Z,13.78
2023-02-19T13:06:31.189Z,18.48
2023-02-19T13:11:46.777Z,21.86
2023-02-19T13:16:59.144Z,18.10
2023-02-19T13:22:58.127Z,14.24
2023-02-19T13:28:35.386Z,14.70
2023-02-19T13:43:00.550Z,13.30
2023-02-19T13:48:25.764Z,12.34
2023-02-19T13:53:52.104Z,10.80
2023-02-19T13:59:41.252Z,10.10
2023-02-19T14:05:08.301Z,9.46
2023-02-19T14:10:52.021Z,8.60
2023-02-19T14:15:56.987Z,8.00
2023-02-19T14:28:42.128Z,7.36
2023-02-19T14:33:54.037Z,7.18
2023-02-19T14:39:19.340Z,7.02
2023-02-19T14:44:31.088Z,6.90
2023-02-19T14:49:50.359Z,6.90
2023-02-19T14:55:01.162Z,6.60
2023-02-19T15:00:48.496Z,6.40
2023-02-19T15:06:32.287Z,6.30
2023-02-19T15:11:37.923Z,6.48
2023-02-19T15:16:43.313Z,6.40
2023-02-19T15:43:44.746Z,5.58
2023-02-19T15:49:33.651Z,5.36
2023-02-19T15:55:00.509Z,5.10
2023-02-19T16:09:23.298Z,4.34
2023-02-19T16:22:22.893Z,4.00
2023-02-19T16:45:00.169Z,3.40
2023-02-19T16:53:27.289Z,3.06
2023-02-19T16:58:39.916Z,3.00
2023-02-19T17:04:53.306Z,2.82
2023-02-19T17:10:06.423Z,2.70
2023-02-19T17:16:40.393Z,2.60
2023-02-19T17:21:54.122Z,2.40
2023-02-19T17:29:43.568Z,2.30
2023-02-19T17:49:47.546Z,2.00
2023-02-19T17:54:54.185Z,2.00
2023-02-19T18:00:02.454Z,2.00
2023-02-19T18:05:29.541Z,2.02
2023-02-19T18:10:33.253Z,2.02
2023-02-19T18:15:43.237Z,2.00
2023-02-19T18:21:15.317Z,2.00
2023-02-19T18:26:41.499Z,1.92
2023-02-19T18:31:45.288Z,2.00
2023-02-19T18:51:17.572Z,1.90
2023-02-19T19:03:42.501Z,1.88
2023-02-19T19:08:46.666Z,1.90
2023-02-19T19:13:50.736Z,2.00
2023-02-19T19:18:55.772Z,2.10
2023-02-19T19:23:59.773Z,2.10
2023-02-19T19:29:31.744Z,2.10
2023-02-19T19:34:35.674Z,2.10
2023-02-19T19:39:49.563Z,2.10
2023-02-19T19:44:54.441Z,2.20
2023-02-19T19:50:26.986Z,2.20
2023-02-19T19:55:34.607Z,2.30
2023-02-19T20:00:44.184Z,2.30
2023-02-19T20:07:16.528Z,2.22
2023-02-19T20:12:46.613Z,2.30
2023-02-19T20:17:51.136Z,2.30
2023-02-19T20:23:27.389Z,2.30
2023-02-19T20:28:32.681Z,2.30
2023-02-19T20:35:18.989Z,2.40
2023-02-19T20:48:30.305Z,2.40
2023-02-19T20:53:35.456Z,2.40
2023-02-19T21:00:15.915Z,2.50
2023-02-19T21:06:12.396Z,2.50
2023-02-19T21:11:16.322Z,2.50
2023-02-19T21:16:45.675Z,2.60
2023-02-19T21:21:49.367Z,2.60
2023-02-19T21:28:14.897Z,2.50
2023-02-19T21:33:19.031Z,2.44
2023-02-19T21:38:22.912Z,2.40
2023-02-19T21:43:29.706Z,2.30
2023-02-19T21:48:34.030Z,2.36
2023-02-19T21:53:39.662Z,2.30
2023-02-19T21:59:15.664Z,2.40
2023-02-19T22:04:45.266Z,2.40
2023-02-19T22:11:11.224Z,2.40
2023-02-19T22:16:15.576Z,2.50
2023-02-19T22:28:39.127Z,2.50
2023-02-19T22:34:26.342Z,2.50
2023-02-19T22:39:35.690Z,2.50
2023-02-19T22:44:43.306Z,2.60
2023-02-19T22:49:47.154Z,2.50
2023-02-19T22:54:52.978Z,2.40
2023-02-19T22:59:56.587Z,2.40
2023-02-19T23:05:08.747Z,2.30
2023-02-19T23:10:37.264Z,2.30
2023-02-19T23:16:12.177Z,2.30
2023-02-19T23:22:06.420Z,2.30
2023-02-19T23:34:24.839Z,2.50
2023-02-19T23:40:46.175Z,2.52
2023-02-19T23:45:50.738Z,2.50
2023-02-19T23:52:21.809Z,2.50
2023-02-19T23:57:25.477Z,2.40
